aviador You're here:

KBLF Decoded Metar

BLUEFIELD in WV, USA
Report Time2017-08-21 13:52:00
UTC Time2017-08-21 13:56:05
Flight Rules vfr VFR
Wind270° at 04 kt
W.Decomp.*RWY 23: 2.7 kt HW 2.9 kt RCW
W.Rank270° ranks 3
Current wind is below 270° avg. (7.5)
Visibility9999 m
Phenomena:N/A
Clouds:N/A
Expected CloudBase > 2,800 ft AGL from Temp-Dew spread
CeilingNone
Temp24°C (ISA +15)
Dew Point17°C (65% RH)
QNH1028 hPa
Density Alt4,324 ft
Elevation2,864 ft
Report Wrong Elevation
Raw Report
METAR KBLF 211352Z AUTO 27004KT 10SM CLR 24/17 A3035 RMK AO2 SLP236
T02390167=

Extra information for KBLF:More info

Metar Taf Metar & Taf Last 4 Metars F.Rules Stats Wind Profile Meteogram Temp Stats Airport Information Weather charts Add Link Nearby VenuesMetar ALERT Operation Metar Decoded Social comments

AIRNAV info for KBLF